Time;durP1;ratioP1;P1;durP2;ratioP2;P2;SDS_P1;SDS_P2;PMS_P1;PMS_P2;Temp;Humidity;BMP_temperature;BMP_pressure;BME280_temperature;BME280_humidity;BME280_pressure;Samples;Min_cycle;Max_cycle;Signal;HPM_P1;HPM_P2
2023/05/10 00:00:28;;;;;;;;;;;;;;;;;;5023141;28;19920;-78
2023/05/10 00:02:53;;;;;;;;;;;;;;;;;;5029507;28;19957;-78
2023/05/10 00:05:19;;;;;;;;;;;;;;;;;;5028778;28;19917;-77
2023/05/10 00:07:44;;;;;;;;;;;;;;;;;;5022671;28;19909;-78
2023/05/10 00:10:10;;;;;;;;;;;;;;;;;;5009177;28;19914;-78
2023/05/10 00:12:35;;;;;;;;;;;;;;;;;;5026772;28;19913;-77
2023/05/10 00:15:01;;;;;;;;;;;;;;;;;;5017254;28;19933;-77
2023/05/10 00:17:26;;;;;;;;;;;;;;;;;;5011720;28;20277;-76
2023/05/10 00:19:51;;;;;;;;;;;;;;;;;;4995301;28;19924;-77
2023/05/10 00:22:17;;;;;;;;;;;;;;;;;;5012975;28;19913;-76
2023/05/10 00:24:42;;;;;;;;;;;;;;;;;;5013077;28;20269;-78
2023/05/10 00:27:07;;;;;;;;;;;;;;;;;;5013136;28;19914;-78
2023/05/10 00:29:33;;;;;;;;;;;;;;;;;;4995767;28;19920;-77
2023/05/10 00:31:59;;;;;;;;;;;;;;;;;;4995570;28;19913;-77
2023/05/10 00:34:24;;;;;;;;;;;;;;;;;;5011909;28;19953;-77
2023/05/10 00:36:50;;;;;;;;;;;;;;;;;;4979176;28;19914;-78
2023/05/10 00:39:15;;;;;;;;;;;;;;;;;;5011404;28;19913;-76
2023/05/10 00:41:40;;;;;;;;;;;;;;;;;;4994830;28;19914;-76
2023/05/10 00:44:06;;;;;;;;;;;;;;;;;;4995004;28;20092;-78
2023/05/10 00:46:31;;;;;;;;;;;;;;;;;;5011433;28;20381;-78
2023/05/10 00:48:57;;;;;;;;;;;;;;;;;;4996005;28;19914;-78
2023/05/10 00:51:23;;;;;;;;;;;;;;;;;;5012038;28;20270;-77
2023/05/10 00:53:48;;;;;;;;;;;;;;;;;;5012518;28;20391;-76
2023/05/10 00:56:13;;;;;;;;;;;;;;;;;;5012573;28;20452;-77
2023/05/10 00:58:39;;;;;;;;;;;;;;;;;;4995666;28;19917;-77
2023/05/10 01:01:04;;;;;;;;;;;;;;;;;;5012932;28;19953;-77
2023/05/10 01:03:30;;;;;;;;;;;;;;;;;;5013012;28;20333;-77
2023/05/10 01:05:55;;;;;;;;;;;;;;;;;;5011778;28;20372;-77
2023/05/10 01:08:20;;;;;;;;;;;;;;;;;;5012447;28;19914;-77
2023/05/10 01:10:48;;;;;;;;;;;;;;;;;;5011358;28;19913;-77
2023/05/10 01:13:14;;;;;;;;;;;;;;;;;;4998383;28;19913;-78
2023/05/10 01:15:39;;;;;;;;;;;;;;;;;;5014983;28;20431;-78
2023/05/10 01:18:05;;;;;;;;;;;;;;;;;;5015817;28;19933;-78
2023/05/10 01:20:30;;;;;;;;;;;;;;;;;;5015665;28;19919;-78
2023/05/10 01:22:56;;;;;;;;;;;;;;;;;;5016014;28;19968;-78
2023/05/10 01:25:21;;;;;;;;;;;;;;;;;;5018077;28;19917;-76
2023/05/10 01:27:47;;;;;;;;;;;;;;;;;;5014920;28;19967;-78
2023/05/10 01:30:12;;;;;;;;;;;;;;;;;;5015798;28;20353;-78
2023/05/10 01:32:37;;;;;;;;;;;;;;;;;;5015950;28;19964;-77
2023/05/10 01:35:03;;;;;;;;;;;;;;;;;;5015499;28;19919;-78
2023/05/10 01:37:28;;;;;;;;;;;;;;;;;;5015015;28;19910;-77
2023/05/10 01:39:54;;;;;;;;;;;;;;;;;;5015549;28;19913;-76
2023/05/10 01:42:19;;;;;;;;;;;;;;;;;;5017117;28;20380;-78
2023/05/10 01:44:45;;;;;;;;;;;;;;;;;;5015811;28;19917;-78
2023/05/10 01:47:11;;;;;;;;;;;;;;;;;;5015886;28;19928;-77
2023/05/10 01:49:36;;;;;;;;;;;;;;;;;;5015916;28;19913;-77
2023/05/10 01:52:01;;;;;;;;;;;;;;;;;;4998163;28;19917;-77
2023/05/10 01:54:27;;;;;;;;;;;;;;;;;;5015485;28;19913;-78
2023/05/10 01:56:52;;;;;;;;;;;;;;;;;;4998704;28;19914;-78
2023/05/10 01:59:17;;;;;;;;;;;;;;;;;;5016469;28;19914;-78
2023/05/10 02:01:43;;;;;;;;;;;;;;;;;;5014673;28;19917;-79
2023/05/10 02:04:09;;;;;;;;;;;;;;;;;;5016597;28;19918;-78
2023/05/10 02:06:34;;;;;;;;;;;;;;;;;;5016979;28;20006;-78
2023/05/10 02:09:00;;;;;;;;;;;;;;;;;;5014250;28;19959;-78
2023/05/10 02:11:26;;;;;;;;;;;;;;;;;;5013654;28;19918;-78
2023/05/10 02:13:51;;;;;;;;;;;;;;;;;;5015094;28;19921;-78
2023/05/10 02:16:17;;;;;;;;;;;;;;;;;;4997759;28;19964;-78
2023/05/10 02:18:43;;;;;;;;;;;;;;;;;;5013457;28;19914;-78
2023/05/10 02:21:08;;;;;;;;;;;;;;;;;;5013872;28;19913;-78
2023/05/10 02:23:33;;;;;;;;;;;;;;;;;;5012351;28;19920;-77
2023/05/10 02:25:59;;;;;;;;;;;;;;;;;;5014356;28;19917;-78
2023/05/10 02:28:24;;;;;;;;;;;;;;;;;;5013539;28;19933;-78
2023/05/10 02:30:50;;;;;;;;;;;;;;;;;;5012874;28;20012;-78
2023/05/10 02:33:16;;;;;;;;;;;;;;;;;;4980891;28;20284;-78
2023/05/10 02:35:41;;;;;;;;;;;;;;;;;;5014710;28;19913;-79
2023/05/10 02:38:07;;;;;;;;;;;;;;;;;;5013145;28;20336;-78
2023/05/10 02:40:33;;;;;;;;;;;;;;;;;;5013090;28;19913;-78
2023/05/10 02:42:58;;;;;;;;;;;;;;;;;;5014143;28;19949;-78
2023/05/10 02:45:24;;;;;;;;;;;;;;;;;;5014014;28;19922;-77
2023/05/10 02:47:49;;;;;;;;;;;;;;;;;;5013241;28;19910;-77
2023/05/10 02:50:14;;;;;;;;;;;;;;;;;;5013722;28;19928;-76
2023/05/10 02:52:40;;;;;;;;;;;;;;;;;;5014179;28;20377;-78
2023/05/10 02:55:06;;;;;;;;;;;;;;;;;;5012899;28;19937;-78
2023/05/10 02:57:31;;;;;;;;;;;;;;;;;;4996745;28;20400;-79
2023/05/10 02:59:56;;;;;;;;;;;;;;;;;;4996850;28;19971;-78
2023/05/10 03:02:22;;;;;;;;;;;;;;;;;;5016365;28;20400;-78
2023/05/10 03:04:47;;;;;;;;;;;;;;;;;;4999277;28;20342;-78
2023/05/10 03:07:13;;;;;;;;;;;;;;;;;;5016327;28;20008;-76
2023/05/10 03:09:39;;;;;;;;;;;;;;;;;;4984102;28;19914;-78
2023/05/10 03:12:04;;;;;;;;;;;;;;;;;;5017945;28;20292;-78
2023/05/10 03:14:30;;;;;;;;;;;;;;;;;;5025713;28;19913;-78
2023/05/10 03:16:55;;;;;;;;;;;;;;;;;;5021557;28;19956;-78
2023/05/10 03:19:21;;;;;;;;;;;;;;;;;;5020321;28;19920;-79
2023/05/10 03:21:46;;;;;;;;;;;;;;;;;;5020761;28;19913;-77
2023/05/10 03:24:12;;;;;;;;;;;;;;;;;;5021412;28;19921;-76
2023/05/10 03:26:37;;;;;;;;;;;;;;;;;;5017796;28;20316;-78
2023/05/10 03:29:08;;;;;;;;;;;;;;;;;;5014896;28;19968;-78
2023/05/10 03:31:33;;;;;;;;;;;;;;;;;;5014593;28;19918;-78
2023/05/10 03:33:59;;;;;;;;;;;;;;;;;;5012415;28;19925;-77
2023/05/10 03:36:25;;;;;;;;;;;;;;;;;;5012571;28;20384;-78
2023/05/10 03:38:51;;;;;;;;;;;;;;;;;;5012436;28;19924;-78
2023/05/10 03:41:16;;;;;;;;;;;;;;;;;;4996132;28;19914;-79
2023/05/10 03:43:42;;;;;;;;;;;;;;;;;;5012388;28;19920;-78
2023/05/10 03:46:07;;;;;;;;;;;;;;;;;;5012409;28;20380;-78
2023/05/10 03:48:33;;;;;;;;;;;;;;;;;;5012758;28;20063;-79
2023/05/10 03:50:58;;;;;;;;;;;;;;;;;;5012447;28;19917;-77
2023/05/10 03:53:24;;;;;;;;;;;;;;;;;;5013467;28;20043;-78
2023/05/10 03:55:49;;;;;;;;;;;;;;;;;;5013626;28;19913;-78
2023/05/10 03:58:15;;;;;;;;;;;;;;;;;;5014728;28;19921;-77
2023/05/10 04:00:43;;;;;;;;;;;;;;;;;;5014537;28;19920;-78
2023/05/10 04:03:09;;;;;;;;;;;;;;;;;;5014637;28;19913;-78
2023/05/10 04:05:35;;;;;;;;;;;;;;;;;;4998507;28;19928;-79
2023/05/10 04:08:00;;;;;;;;;;;;;;;;;;4998607;28;19929;-78
2023/05/10 04:10:25;;;;;;;;;;;;;;;;;;4981358;28;19924;-78
2023/05/10 04:12:51;;;;;;;;;;;;;;;;;;5013782;28;20315;-78
2023/05/10 04:15:16;;;;;;;;;;;;;;;;;;5013725;28;19913;-79
2023/05/10 04:17:42;;;;;;;;;;;;;;;;;;5013309;28;19957;-78
2023/05/10 04:20:08;;;;;;;;;;;;;;;;;;4997015;28;19914;-78
2023/05/10 04:22:33;;;;;;;;;;;;;;;;;;5013815;28;19913;-78
2023/05/10 04:24:58;;;;;;;;;;;;;;;;;;5012574;28;19925;-78
2023/05/10 04:27:24;;;;;;;;;;;;;;;;;;5013900;28;20451;-78
2023/05/10 04:29:50;;;;;;;;;;;;;;;;;;5011624;28;20011;-78
2023/05/10 04:32:16;;;;;;;;;;;;;;;;;;5013236;28;19917;-79
2023/05/10 04:34:42;;;;;;;;;;;;;;;;;;4998056;28;19913;-79
2023/05/10 04:37:07;;;;;;;;;;;;;;;;;;4999807;28;20395;-79
2023/05/10 04:39:33;;;;;;;;;;;;;;;;;;5017469;28;19985;-79
2023/05/10 04:41:58;;;;;;;;;;;;;;;;;;5014790;28;19977;-76
2023/05/10 04:44:24;;;;;;;;;;;;;;;;;;5014258;28;19929;-77
2023/05/10 04:46:49;;;;;;;;;;;;;;;;;;5018118;28;19921;-79
2023/05/10 04:49:14;;;;;;;;;;;;;;;;;;5020403;28;19972;-78
2023/05/10 04:51:40;;;;;;;;;;;;;;;;;;5017259;28;19939;-77
2023/05/10 04:54:05;;;;;;;;;;;;;;;;;;5015158;28;19913;-78
2023/05/10 04:56:30;;;;;;;;;;;;;;;;;;5014837;28;19963;-77
2023/05/10 04:58:56;;;;;;;;;;;;;;;;;;5016037;28;19940;-78
2023/05/10 05:01:22;;;;;;;;;;;;;;;;;;5016089;28;19920;-80
2023/05/10 05:03:48;;;;;;;;;;;;;;;;;;5015232;28;20043;-78
2023/05/10 05:06:13;;;;;;;;;;;;;;;;;;5014717;28;20388;-77
2023/05/10 05:08:39;;;;;;;;;;;;;;;;;;5015948;28;19914;-79
2023/05/10 05:11:04;;;;;;;;;;;;;;;;;;5016763;28;19917;-78
2023/05/10 05:13:30;;;;;;;;;;;;;;;;;;5015321;28;20007;-76
2023/05/10 05:15:56;;;;;;;;;;;;;;;;;;5015845;28;19913;-78
2023/05/10 05:18:21;;;;;;;;;;;;;;;;;;5015542;28;20403;-78
2023/05/10 05:20:46;;;;;;;;;;;;;;;;;;5015312;28;20428;-78
2023/05/10 05:23:12;;;;;;;;;;;;;;;;;;5017192;28;19913;-78
2023/05/10 05:25:37;;;;;;;;;;;;;;;;;;5015893;28;19917;-78
2023/05/10 05:28:03;;;;;;;;;;;;;;;;;;5016107;28;19980;-79
2023/05/10 05:30:28;;;;;;;;;;;;;;;;;;5017641;28;19913;-79
2023/05/10 05:32:54;;;;;;;;;;;;;;;;;;5016567;28;20275;-78
2023/05/10 05:35:19;;;;;;;;;;;;;;;;;;5017099;28;19917;-78
2023/05/10 05:37:44;;;;;;;;;;;;;;;;;;5016049;28;19922;-78
2023/05/10 05:40:10;;;;;;;;;;;;;;;;;;5017039;28;19909;-78
2023/05/10 05:42:36;;;;;;;;;;;;;;;;;;5015338;28;20328;-78
2023/05/10 05:45:01;;;;;;;;;;;;;;;;;;5016379;28;19987;-79
2023/05/10 05:47:27;;;;;;;;;;;;;;;;;;5016297;28;20266;-79
2023/05/10 05:49:52;;;;;;;;;;;;;;;;;;5016161;28;19920;-78
2023/05/10 05:52:18;;;;;;;;;;;;;;;;;;5029947;22;19926;-80
2023/05/10 05:54:43;;;;;;;;;;;;;;;;;;5018106;28;19957;-81
2023/05/10 05:57:09;;;;;;;;;;;;;;;;;;5015818;28;20331;-80
2023/05/10 05:59:34;;;;;;;;;;;;;;;;;;5015200;28;19913;-78
2023/05/10 06:02:00;;;;;;;;;;;;;;;;;;5016605;28;19913;-78
2023/05/10 06:04:25;;;;;;;;;;;;;;;;;;5021348;28;19917;-80
2023/05/10 06:06:51;;;;;;;;;;;;;;;;;;5005403;28;19914;-78
2023/05/10 06:09:16;;;;;;;;;;;;;;;;;;5023367;28;19945;-80
2023/05/10 06:11:42;;;;;;;;;;;;;;;;;;5022744;28;19972;-80
2023/05/10 06:14:07;;;;;;;;;;;;;;;;;;5024314;28;19925;-78
2023/05/10 06:16:33;;;;;;;;;;;;;;;;;;5025737;28;19920;-79
2023/05/10 06:18:58;;;;;;;;;;;;;;;;;;5020023;28;20357;-77
2023/05/10 06:21:24;;;;;;;;;;;;;;;;;;5023555;28;19969;-77
2023/05/10 06:23:49;;;;;;;;;;;;;;;;;;5024479;28;19932;-78
2023/05/10 06:26:14;;;;;;;;;;;;;;;;;;5019856;28;19922;-78
2023/05/10 06:28:40;;;;;;;;;;;;;;;;;;5017860;28;19913;-79
2023/05/10 06:31:06;;;;;;;;;;;;;;;;;;5016780;28;19913;-78
2023/05/10 06:33:31;;;;;;;;;;;;;;;;;;5016463;28;19914;-78
2023/05/10 06:35:57;;;;;;;;;;;;;;;;;;4999880;28;19917;-79
2023/05/10 06:38:22;;;;;;;;;;;;;;;;;;5015500;28;20283;-77
2023/05/10 06:40:48;;;;;;;;;;;;;;;;;;5014561;28;19940;-78
2023/05/10 06:43:13;;;;;;;;;;;;;;;;;;5015117;28;19914;-78
2023/05/10 06:45:38;;;;;;;;;;;;;;;;;;5014337;28;20284;-77
2023/05/10 06:48:04;;;;;;;;;;;;;;;;;;5013198;28;19913;-77
2023/05/10 06:50:29;;;;;;;;;;;;;;;;;;5014103;28;19909;-79
2023/05/10 06:52:55;;;;;;;;;;;;;;;;;;5014043;28;19917;-78
2023/05/10 06:55:20;;;;;;;;;;;;;;;;;;4996975;28;19909;-78
2023/05/10 06:57:47;;;;;;;;;;;;;;;;;;5014006;28;19975;-79
2023/05/10 07:00:15;;;;;;;;;;;;;;;;;;5013575;28;19956;-78
2023/05/10 07:02:40;;;;;;;;;;;;;;;;;;5014181;28;20384;-78
2023/05/10 07:05:06;;;;;;;;;;;;;;;;;;5012619;28;19940;-80
2023/05/10 07:07:31;;;;;;;;;;;;;;;;;;5013612;28;19909;-79
2023/05/10 07:09:57;;;;;;;;;;;;;;;;;;5011791;28;19953;-79
2023/05/10 07:12:22;;;;;;;;;;;;;;;;;;5013616;28;20460;-79
2023/05/10 07:14:48;;;;;;;;;;;;;;;;;;5013445;28;20416;-78
2023/05/10 07:17:13;;;;;;;;;;;;;;;;;;4995691;28;19964;-79
2023/05/10 07:19:39;;;;;;;;;;;;;;;;;;5013970;28;19929;-80
2023/05/10 07:22:04;;;;;;;;;;;;;;;;;;5013420;28;20380;-78
2023/05/10 07:24:31;;;;;;;;;;;;;;;;;;5012998;28;19921;-80
2023/05/10 07:26:56;;;;;;;;;;;;;;;;;;5013601;28;19936;-78
2023/05/10 07:29:21;;;;;;;;;;;;;;;;;;5014852;28;19909;-78
2023/05/10 07:31:47;;;;;;;;;;;;;;;;;;5014712;28;20388;-79
2023/05/10 07:34:12;;;;;;;;;;;;;;;;;;5012619;28;19981;-80
2023/05/10 07:36:37;;;;;;;;;;;;;;;;;;5012058;28;19913;-79
2023/05/10 07:39:03;;;;;;;;;;;;;;;;;;5012731;28;20427;-81
2023/05/10 07:41:28;;;;;;;;;;;;;;;;;;5013221;28;20300;-78
2023/05/10 07:43:53;;;;;;;;;;;;;;;;;;5013425;28;19997;-79
2023/05/10 07:46:19;;;;;;;;;;;;;;;;;;5013049;28;20369;-79
2023/05/10 07:48:44;;;;;;;;;;;;;;;;;;5013537;28;20005;-79
2023/05/10 07:51:10;;;;;;;;;;;;;;;;;;5013080;28;20334;-81
2023/05/10 07:53:35;;;;;;;;;;;;;;;;;;5013298;28;19909;-82
2023/05/10 07:56:01;;;;;;;;;;;;;;;;;;5013330;28;19920;-80
2023/05/10 07:58:26;;;;;;;;;;;;;;;;;;4995880;28;20020;-79
2023/05/10 08:00:52;;;;;;;;;;;;;;;;;;5012021;28;19967;-78
2023/05/10 08:03:17;;;;;;;;;;;;;;;;;;5012226;28;20304;-79
2023/05/10 08:05:43;;;;;;;;;;;;;;;;;;4995458;28;19960;-81
2023/05/10 08:08:08;;;;;;;;;;;;;;;;;;4995381;28;19917;-80
2023/05/10 08:10:34;;;;;;;;;;;;;;;;;;5012691;28;20012;-80
2023/05/10 08:13:01;;;;;;;;;;;;;;;;;;4994499;28;20212;-81
2023/05/10 08:15:26;;;;;;;;;;;;;;;;;;5012781;28;19976;-79
2023/05/10 08:17:52;;;;;;;;;;;;;;;;;;5011652;28;19979;-80
2023/05/10 08:20:18;;;;;;;;;;;;;;;;;;5011063;28;19917;-80
2023/05/10 08:22:44;;;;;;;;;;;;;;;;;;5012674;28;19923;-83
2023/05/10 08:25:09;;;;;;;;;;;;;;;;;;5013572;28;20368;-80
2023/05/10 08:27:35;;;;;;;;;;;;;;;;;;5016135;28;19914;-79
2023/05/10 08:30:00;;;;;;;;;;;;;;;;;;5013820;28;19956;-78
2023/05/10 08:32:25;;;;;;;;;;;;;;;;;;5013609;28;19913;-78
2023/05/10 08:34:51;;;;;;;;;;;;;;;;;;5023806;28;19917;-80
2023/05/10 08:37:16;;;;;;;;;;;;;;;;;;5026797;28;19959;-79
2023/05/10 08:39:42;;;;;;;;;;;;;;;;;;5023140;28;19948;-79
2023/05/10 08:42:08;;;;;;;;;;;;;;;;;;5016910;28;20369;-79
2023/05/10 08:44:33;;;;;;;;;;;;;;;;;;5013019;28;19917;-80
2023/05/10 08:46:58;;;;;;;;;;;;;;;;;;4995315;28;19921;-80
2023/05/10 08:49:24;;;;;;;;;;;;;;;;;;5011342;28;19913;-79
2023/05/10 08:51:49;;;;;;;;;;;;;;;;;;5013268;28;20296;-80
2023/05/10 08:54:15;;;;;;;;;;;;;;;;;;5012032;28;20013;-79
2023/05/10 08:56:40;;;;;;;;;;;;;;;;;;5012719;28;20301;-80
2023/05/10 08:59:05;;;;;;;;;;;;;;;;;;5011121;28;19921;-82
2023/05/10 09:01:31;;;;;;;;;;;;;;;;;;5012486;28;19924;-80
2023/05/10 09:03:56;;;;;;;;;;;;;;;;;;5011597;28;19913;-79
2023/05/10 09:06:22;;;;;;;;;;;;;;;;;;5011321;28;19945;-80
2023/05/10 09:08:47;;;;;;;;;;;;;;;;;;5011990;28;20032;-80
2023/05/10 09:11:13;;;;;;;;;;;;;;;;;;5012752;28;20027;-79
2023/05/10 09:13:38;;;;;;;;;;;;;;;;;;5012984;28;19913;-81
2023/05/10 09:16:04;;;;;;;;;;;;;;;;;;5014434;28;20363;-78
2023/05/10 09:18:29;;;;;;;;;;;;;;;;;;5013963;28;19940;-78
2023/05/10 09:20:55;;;;;;;;;;;;;;;;;;5016532;28;20392;-79
2023/05/10 09:23:20;;;;;;;;;;;;;;;;;;5016382;28;19914;-79
2023/05/10 09:25:45;;;;;;;;;;;;;;;;;;5000680;28;20011;-81
2023/05/10 09:28:11;;;;;;;;;;;;;;;;;;5019179;28;19914;-80
2023/05/10 09:30:36;;;;;;;;;;;;;;;;;;5017546;28;19940;-80
2023/05/10 09:33:02;;;;;;;;;;;;;;;;;;5017881;28;20359;-79
2023/05/10 09:35:27;;;;;;;;;;;;;;;;;;5021855;28;20257;-78
2023/05/10 09:37:53;;;;;;;;;;;;;;;;;;5016423;28;19909;-79
2023/05/10 09:40:19;;;;;;;;;;;;;;;;;;5016228;28;20000;-78
2023/05/10 09:42:44;;;;;;;;;;;;;;;;;;5016353;28;19957;-80
2023/05/10 09:45:10;;;;;;;;;;;;;;;;;;5014314;28;20427;-79
2023/05/10 09:47:35;;;;;;;;;;;;;;;;;;5014736;28;20000;-79
2023/05/10 09:50:07;;;;;;;;;;;;;;;;;;5013608;28;20020;-81
2023/05/10 09:52:32;;;;;;;;;;;;;;;;;;5014063;28;19917;-81
2023/05/10 09:54:58;;;;;;;;;;;;;;;;;;5015452;28;20056;-79
2023/05/10 09:57:23;;;;;;;;;;;;;;;;;;5014962;28;19925;-79
2023/05/10 09:59:50;;;;;;;;;;;;;;;;;;5015554;28;19913;-79
2023/05/10 10:02:15;;;;;;;;;;;;;;;;;;5016086;28;19913;-78
2023/05/10 10:04:41;;;;;;;;;;;;;;;;;;5015912;28;19917;-80
2023/05/10 10:07:06;;;;;;;;;;;;;;;;;;5019264;28;19910;-78
2023/05/10 10:09:32;;;;;;;;;;;;;;;;;;5018536;28;19914;-79
2023/05/10 10:11:57;;;;;;;;;;;;;;;;;;5014470;28;19917;-79
2023/05/10 10:14:23;;;;;;;;;;;;;;;;;;5013866;28;20261;-80
2023/05/10 10:16:49;;;;;;;;;;;;;;;;;;5013827;28;19920;-79
2023/05/10 10:19:14;;;;;;;;;;;;;;;;;;5013605;28;19913;-79
2023/05/10 10:21:40;;;;;;;;;;;;;;;;;;5015173;28;19949;-81
2023/05/10 10:24:05;;;;;;;;;;;;;;;;;;5014823;28;19921;-80
2023/05/10 10:26:30;;;;;;;;;;;;;;;;;;5015156;28;19924;-79
2023/05/10 10:28:56;;;;;;;;;;;;;;;;;;5013719;28;20274;-79
2023/05/10 10:31:21;;;;;;;;;;;;;;;;;;5014617;28;19920;-81
2023/05/10 10:33:47;;;;;;;;;;;;;;;;;;5013270;28;19949;-80
2023/05/10 10:36:12;;;;;;;;;;;;;;;;;;5015143;28;20360;-79
2023/05/10 10:38:38;;;;;;;;;;;;;;;;;;5014489;28;19913;-79
2023/05/10 10:41:04;;;;;;;;;;;;;;;;;;5014308;28;19913;-80
2023/05/10 10:43:30;;;;;;;;;;;;;;;;;;5013660;28;20289;-80
2023/05/10 10:45:55;;;;;;;;;;;;;;;;;;5012924;28;19956;-80
2023/05/10 10:48:20;;;;;;;;;;;;;;;;;;5014253;28;20364;-80
2023/05/10 10:50:49;;;;;;;;;;;;;;;;;;5012841;28;19923;-81
2023/05/10 10:53:14;;;;;;;;;;;;;;;;;;5013051;28;19917;-79
2023/05/10 10:55:39;;;;;;;;;;;;;;;;;;5014646;28;19921;-80
2023/05/10 10:58:05;;;;;;;;;;;;;;;;;;5013027;28;20300;-80
2023/05/10 11:00:31;;;;;;;;;;;;;;;;;;5013875;28;20377;-79
2023/05/10 11:02:57;;;;;;;;;;;;;;;;;;5013830;28;19924;-79
2023/05/10 11:05:22;;;;;;;;;;;;;;;;;;5012730;28;19925;-81
2023/05/10 11:07:47;;;;;;;;;;;;;;;;;;4996936;28;19924;-79
2023/05/10 11:10:13;;;;;;;;;;;;;;;;;;4997667;28;19913;-78
2023/05/10 11:12:38;;;;;;;;;;;;;;;;;;5017876;28;20454;-80
2023/05/10 11:15:03;;;;;;;;;;;;;;;;;;5017894;28;19914;-79
2023/05/10 11:17:30;;;;;;;;;;;;;;;;;;5012334;28;19914;-80
2023/05/10 11:19:55;;;;;;;;;;;;;;;;;;5013778;28;20324;-78
2023/05/10 11:22:21;;;;;;;;;;;;;;;;;;5012438;28;19959;-78
2023/05/10 11:24:46;;;;;;;;;;;;;;;;;;5013548;28;20005;-80
2023/05/10 11:27:11;;;;;;;;;;;;;;;;;;4996855;28;19984;-79
2023/05/10 11:29:37;;;;;;;;;;;;;;;;;;5013394;28;20012;-78
2023/05/10 11:32:04;;;;;;;;;;;;;;;;;;5014548;28;19971;-78
2023/05/10 11:34:38;;;;;;;;;;;;;;;;;;5014075;28;20032;-80
2023/05/10 11:37:04;;;;;;;;;;;;;;;;;;5012545;28;19963;-80
2023/05/10 11:39:29;;;;;;;;;;;;;;;;;;5013410;28;20000;-80
2023/05/10 11:41:54;;;;;;;;;;;;;;;;;;5013669;28;19914;-79
2023/05/10 11:44:20;;;;;;;;;;;;;;;;;;5012958;28;19920;-79
2023/05/10 11:46:45;;;;;;;;;;;;;;;;;;4979521;28;19921;-80
2023/05/10 11:49:11;;;;;;;;;;;;;;;;;;5012386;28;19968;-80
2023/05/10 11:51:37;;;;;;;;;;;;;;;;;;5003982;22;19925;-77
2023/05/10 11:54:02;;;;;;;;;;;;;;;;;;4992465;28;20277;-77
2023/05/10 11:56:28;;;;;;;;;;;;;;;;;;4991498;28;20293;-79
2023/05/10 11:58:53;;;;;;;;;;;;;;;;;;4993269;28;19949;-79
2023/05/10 12:01:19;;;;;;;;;;;;;;;;;;4992079;28;19920;-79
2023/05/10 12:03:44;;;;;;;;;;;;;;;;;;4994016;28;20314;-78
2023/05/10 12:06:10;;;;;;;;;;;;;;;;;;4976361;28;20016;-79
2023/05/10 12:08:35;;;;;;;;;;;;;;;;;;4976424;28;19913;-80
2023/05/10 12:11:00;;;;;;;;;;;;;;;;;;4992290;28;20484;-78
2023/05/10 12:13:26;;;;;;;;;;;;;;;;;;4993794;28;19921;-81
2023/05/10 12:15:52;;;;;;;;;;;;;;;;;;4992262;28;19924;-79
2023/05/10 12:18:17;;;;;;;;;;;;;;;;;;4992405;28;19914;-78
2023/05/10 12:20:42;;;;;;;;;;;;;;;;;;4992063;28;19936;-79
2023/05/10 12:23:08;;;;;;;;;;;;;;;;;;4959836;28;20000;-78
2023/05/10 12:25:33;;;;;;;;;;;;;;;;;;4992148;28;19925;-79
2023/05/10 12:28:00;;;;;;;;;;;;;;;;;;4976269;28;19913;-78
2023/05/10 12:30:26;;;;;;;;;;;;;;;;;;4976118;28;19920;-81
2023/05/10 12:32:52;;;;;;;;;;;;;;;;;;4976878;28;19918;-79
2023/05/10 12:35:21;;;;;;;;;;;;;;;;;;4994061;28;20350;-82
2023/05/10 12:37:47;;;;;;;;;;;;;;;;;;4963177;28;20362;-79
2023/05/10 12:40:12;;;;;;;;;;;;;;;;;;4994413;28;19920;-81
2023/05/10 12:42:38;;;;;;;;;;;;;;;;;;4979113;28;19914;-80
2023/05/10 12:45:04;;;;;;;;;;;;;;;;;;4979145;28;19924;-79
2023/05/10 12:47:29;;;;;;;;;;;;;;;;;;4994548;28;20297;-79
2023/05/10 12:49:55;;;;;;;;;;;;;;;;;;5009100;28;20381;-79
2023/05/10 12:52:20;;;;;;;;;;;;;;;;;;4994403;28;19929;-79
2023/05/10 12:54:46;;;;;;;;;;;;;;;;;;4976892;28;19941;-80
2023/05/10 12:57:11;;;;;;;;;;;;;;;;;;4993509;28;19914;-79
2023/05/10 12:59:37;;;;;;;;;;;;;;;;;;5009430;28;19918;-81
2023/05/10 13:02:02;;;;;;;;;;;;;;;;;;4994473;28;19917;-78
2023/05/10 13:04:28;;;;;;;;;;;;;;;;;;4994049;28;20364;-79
2023/05/10 13:06:55;;;;;;;;;;;;;;;;;;4994930;28;19964;-78
2023/05/10 13:09:21;;;;;;;;;;;;;;;;;;4997877;28;19922;-80
2023/05/10 13:11:48;;;;;;;;;;;;;;;;;;4997592;28;20008;-81
2023/05/10 13:14:14;;;;;;;;;;;;;;;;;;4997741;28;19914;-78
2023/05/10 13:16:39;;;;;;;;;;;;;;;;;;4980443;28;19960;-79
2023/05/10 13:19:05;;;;;;;;;;;;;;;;;;4996578;28;19925;-79
2023/05/10 13:21:30;;;;;;;;;;;;;;;;;;4979891;28;19918;-79
2023/05/10 13:23:59;;;;;;;;;;;;;;;;;;4996257;28;19938;-79
2023/05/10 13:26:25;;;;;;;;;;;;;;;;;;4997581;28;19918;-79
2023/05/10 13:28:51;;;;;;;;;;;;;;;;;;4964209;28;19918;-80
2023/05/10 13:31:16;;;;;;;;;;;;;;;;;;4996183;28;19913;-81
2023/05/10 13:33:42;;;;;;;;;;;;;;;;;;4996538;28;19949;-79
2023/05/10 13:36:07;;;;;;;;;;;;;;;;;;4979954;28;19914;-80
2023/05/10 13:38:33;;;;;;;;;;;;;;;;;;4980213;28;20360;-80
2023/05/10 13:40:58;;;;;;;;;;;;;;;;;;4995798;28;19913;-80
2023/05/10 13:43:24;;;;;;;;;;;;;;;;;;4962702;28;20342;-79
2023/05/10 13:45:49;;;;;;;;;;;;;;;;;;4996897;28;19918;-80
2023/05/10 13:48:15;;;;;;;;;;;;;;;;;;4997106;28;20344;-79
2023/05/10 13:50:41;;;;;;;;;;;;;;;;;;4997621;28;19918;-79
2023/05/10 13:53:06;;;;;;;;;;;;;;;;;;4997895;28;19918;-79
2023/05/10 13:55:32;;;;;;;;;;;;;;;;;;4996068;28;19993;-80
2023/05/10 13:57:58;;;;;;;;;;;;;;;;;;4995933;28;19968;-80
2023/05/10 14:00:23;;;;;;;;;;;;;;;;;;5011759;28;20336;-79
2023/05/10 14:02:48;;;;;;;;;;;;;;;;;;4996728;28;20017;-80
2023/05/10 14:05:14;;;;;;;;;;;;;;;;;;4979338;28;19973;-79
2023/05/10 14:07:39;;;;;;;;;;;;;;;;;;4994401;28;19918;-79
2023/05/10 14:10:06;;;;;;;;;;;;;;;;;;5011255;28;20323;-79
2023/05/10 14:12:31;;;;;;;;;;;;;;;;;;4994266;28;20206;-78
2023/05/10 14:14:57;;;;;;;;;;;;;;;;;;4978198;28;20295;-79
2023/05/10 14:17:23;;;;;;;;;;;;;;;;;;4977720;28;20392;-80
2023/05/10 14:19:48;;;;;;;;;;;;;;;;;;4977067;28;19913;-80
2023/05/10 14:22:14;;;;;;;;;;;;;;;;;;4994479;28;19913;-79
2023/05/10 14:24:40;;;;;;;;;;;;;;;;;;4977868;28;19921;-78
2023/05/10 14:27:05;;;;;;;;;;;;;;;;;;4993714;28;19918;-79
2023/05/10 14:29:31;;;;;;;;;;;;;;;;;;4977527;28;20008;-78
2023/05/10 14:31:57;;;;;;;;;;;;;;;;;;4993638;28;19914;-78
2023/05/10 14:34:22;;;;;;;;;;;;;;;;;;4977360;28;19924;-80
2023/05/10 14:36:48;;;;;;;;;;;;;;;;;;4977503;28;20297;-79
2023/05/10 14:39:13;;;;;;;;;;;;;;;;;;4977208;28;20328;-80
2023/05/10 14:41:44;;;;;;;;;;;;;;;;;;4976771;28;19918;-79
2023/05/10 14:44:09;;;;;;;;;;;;;;;;;;4994078;28;19914;-79
2023/05/10 14:46:35;;;;;;;;;;;;;;;;;;4994016;28;19941;-80
2023/05/10 14:49:00;;;;;;;;;;;;;;;;;;4995525;28;19918;-79
2023/05/10 14:51:26;;;;;;;;;;;;;;;;;;4977178;28;20025;-80
2023/05/10 14:53:51;;;;;;;;;;;;;;;;;;4993463;28;19918;-80
2023/05/10 14:56:17;;;;;;;;;;;;;;;;;;4994107;28;19921;-78
2023/05/10 14:58:42;;;;;;;;;;;;;;;;;;4961647;28;19964;-80
2023/05/10 15:01:08;;;;;;;;;;;;;;;;;;4977256;28;20257;-81
2023/05/10 15:03:33;;;;;;;;;;;;;;;;;;4994997;28;19910;-79
2023/05/10 15:05:59;;;;;;;;;;;;;;;;;;4961110;28;19971;-80
2023/05/10 15:08:24;;;;;;;;;;;;;;;;;;4977547;28;20343;-81
2023/05/10 15:10:50;;;;;;;;;;;;;;;;;;4976899;28;19913;-81
2023/05/10 15:13:16;;;;;;;;;;;;;;;;;;4977586;28;19910;-81
2023/05/10 15:15:41;;;;;;;;;;;;;;;;;;4993229;28;19914;-79
2023/05/10 15:18:07;;;;;;;;;;;;;;;;;;4961005;28;19914;-79
2023/05/10 15:20:32;;;;;;;;;;;;;;;;;;4992876;28;19921;-78
2023/05/10 15:22:58;;;;;;;;;;;;;;;;;;4961321;28;19914;-78
2023/05/10 15:25:23;;;;;;;;;;;;;;;;;;4960618;28;19932;-78
2023/05/10 15:27:49;;;;;;;;;;;;;;;;;;4993681;28;19914;-79
2023/05/10 15:30:14;;;;;;;;;;;;;;;;;;4976512;28;19918;-79
2023/05/10 15:32:40;;;;;;;;;;;;;;;;;;4976302;28;20365;-79
2023/05/10 15:35:05;;;;;;;;;;;;;;;;;;4993982;28;19918;-80
2023/05/10 15:37:31;;;;;;;;;;;;;;;;;;4992431;28;20508;-80
2023/05/10 15:40:03;;;;;;;;;;;;;;;;;;4993517;28;19918;-79
2023/05/10 15:42:29;;;;;;;;;;;;;;;;;;4992250;28;19918;-80
2023/05/10 15:44:55;;;;;;;;;;;;;;;;;;4992261;28;19918;-78
2023/05/10 15:47:20;;;;;;;;;;;;;;;;;;4976371;28;20547;-81
2023/05/10 15:49:46;;;;;;;;;;;;;;;;;;4976316;28;20020;-82
2023/05/10 15:52:11;;;;;;;;;;;;;;;;;;4993590;28;19969;-87
2023/05/10 15:54:37;;;;;;;;;;;;;;;;;;4962136;28;19914;-84
2023/05/10 15:57:03;;;;;;;;;;;;;;;;;;4973186;28;19960;-85
2023/05/10 15:59:28;;;;;;;;;;;;;;;;;;4975140;28;19914;-85
2023/05/10 16:01:54;;;;;;;;;;;;;;;;;;4958161;28;19914;-86
2023/05/10 16:04:20;;;;;;;;;;;;;;;;;;4942700;28;19918;-85
2023/05/10 16:06:45;;;;;;;;;;;;;;;;;;4958820;28;20166;-85
2023/05/10 16:09:11;;;;;;;;;;;;;;;;;;4976636;28;19985;-84
2023/05/10 16:11:36;;;;;;;;;;;;;;;;;;4978083;28;19925;-85
2023/05/10 16:14:02;;;;;;;;;;;;;;;;;;4986137;28;19968;-86
2023/05/10 16:16:28;;;;;;;;;;;;;;;;;;4964035;28;19972;-86
2023/05/10 16:18:53;;;;;;;;;;;;;;;;;;4979342;28;19914;-85
2023/05/10 16:21:19;;;;;;;;;;;;;;;;;;4995458;28;19914;-84
2023/05/10 16:23:45;;;;;;;;;;;;;;;;;;4980704;28;19914;-85
2023/05/10 16:26:10;;;;;;;;;;;;;;;;;;5016199;28;19925;-86
2023/05/10 16:28:36;;;;;;;;;;;;;;;;;;4995390;28;19919;-85
2023/05/10 16:31:02;;;;;;;;;;;;;;;;;;4970257;28;20052;-86
2023/05/10 16:33:31;;;;;;;;;;;;;;;;;;4973962;28;19916;-85